Time;durP1;ratioP1;P1;durP2;ratioP2;P2;SDS_P1;SDS_P2;PMS_P1;PMS_P2;Temp;Humidity;BMP_temperature;BMP_pressure;BME280_temperature;BME280_humidity;BME280_pressure;Samples;Min_cycle;Max_cycle;Signal;HPM_P1;HPM_P2
2022/03/25 00:01:25;;;;;;;;;;;10.40;74.00;;;;;;4968501;28;19930;-79
2022/03/25 00:03:52;;;;;;;;;;;10.30;74.00;;;;;;4972715;28;19932;-79
2022/03/25 00:06:19;;;;;;;;;;;10.30;74.00;;;;;;4956728;28;19926;-79
2022/03/25 00:08:47;;;;;;;;;;;10.30;74.00;;;;;;4975431;28;19926;-79
2022/03/25 00:11:14;;;;;;;;;;;10.30;73.80;;;;;;4964663;28;19976;-78
2022/03/25 00:13:41;;;;;;;;;;;10.20;73.70;;;;;;4973685;28;19926;-78
2022/03/25 00:16:08;;;;;;;;;;;10.20;73.70;;;;;;4950039;28;19933;-76
2022/03/25 00:18:35;;;;;;;;;;;10.20;73.70;;;;;;4973716;28;19993;-77
2022/03/25 00:21:02;;;;;;;;;;;10.10;73.50;;;;;;4968936;28;19926;-78
2022/03/25 00:23:29;;;;;;;;;;;10.10;73.50;;;;;;4969018;28;20290;-78
2022/03/25 00:25:58;;;;;;;;;;;10.10;73.50;;;;;;4956898;28;19954;-77
2022/03/25 00:28:25;;;;;;;;;;;10.10;73.60;;;;;;4968890;28;19930;-77
2022/03/25 00:30:52;;;;;;;;;;;10.00;73.50;;;;;;4951752;28;20005;-78
2022/03/25 00:33:19;;;;;;;;;;;10.00;73.60;;;;;;4957397;28;19949;-78
2022/03/25 00:35:46;;;;;;;;;;;10.00;73.60;;;;;;4973986;28;20013;-78
2022/03/25 00:38:13;;;;;;;;;;;10.00;73.50;;;;;;4965701;28;19972;-77
2022/03/25 00:40:40;;;;;;;;;;;9.90;74.50;;;;;;4952648;28;19997;-77
2022/03/25 00:43:09;;;;;;;;;;;9.90;74.30;;;;;;4953301;28;19926;-78
2022/03/25 00:45:36;;;;;;;;;;;9.90;74.50;;;;;;4973392;28;19926;-78
2022/03/25 00:48:04;;;;;;;;;;;9.80;74.30;;;;;;4954018;28;19934;-78
2022/03/25 00:50:31;;;;;;;;;;;9.80;74.40;;;;;;4969156;28;19926;-77
2022/03/25 00:52:57;;;;;;;;;;;9.80;74.40;;;;;;4984561;23;19914;-75
2022/03/25 00:55:25;;;;;;;;;;;9.70;74.10;;;;;;4996639;28;19929;-75
2022/03/25 00:57:52;;;;;;;;;;;9.70;74.30;;;;;;5012230;28;19988;-75
2022/03/25 01:00:21;;;;;;;;;;;9.60;73.90;;;;;;4986187;28;19926;-76
2022/03/25 01:02:48;;;;;;;;;;;9.60;74.00;;;;;;5002134;28;20281;-75
2022/03/25 01:05:17;;;;;;;;;;;9.60;73.80;;;;;;5017288;28;20346;-75
2022/03/25 01:07:44;;;;;;;;;;;9.50;73.40;;;;;;5006345;28;19976;-75
2022/03/25 01:10:11;;;;;;;;;;;9.50;73.20;;;;;;4987554;28;19925;-75
2022/03/25 01:12:38;;;;;;;;;;;9.50;73.10;;;;;;5004828;28;19940;-75
2022/03/25 01:15:06;;;;;;;;;;;9.40;73.00;;;;;;4987148;28;19972;-75
2022/03/25 01:17:34;;;;;;;;;;;9.40;73.30;;;;;;5010344;28;19926;-75
2022/03/25 01:20:01;;;;;;;;;;;9.40;73.10;;;;;;5006247;28;20981;-76
2022/03/25 01:22:28;;;;;;;;;;;9.30;73.20;;;;;;5008577;28;19929;-75
2022/03/25 01:24:56;;;;;;;;;;;9.30;73.00;;;;;;4995902;28;19933;-76
2022/03/25 01:27:23;;;;;;;;;;;9.30;73.00;;;;;;4989288;28;19929;-75
2022/03/25 01:29:50;;;;;;;;;;;9.20;72.90;;;;;;5006113;28;19926;-75
2022/03/25 01:32:17;;;;;;;;;;;9.20;72.70;;;;;;4999647;28;19937;-75
2022/03/25 01:34:47;;;;;;;;;;;9.10;72.50;;;;;;4991131;28;19933;-75
2022/03/25 01:37:14;;;;;;;;;;;9.10;72.70;;;;;;4983478;23;19918;-96
2022/03/25 01:39:41;;;;;;;;;;;9.10;72.70;;;;;;4972427;28;20297;-92
2022/03/25 01:42:11;;;;;;;;;;;9.10;73.10;;;;;;4971379;28;19926;-92
2022/03/25 01:44:38;;;;;;;;;;;9.00;72.20;;;;;;4974898;28;20409;-93
2022/03/25 01:47:08;;;;;;;;;;;9.00;72.10;;;;;;4980808;28;19926;-91
2022/03/25 01:49:40;;;;;;;;;;;9.00;71.70;;;;;;4953464;28;20294;-92
2022/03/25 01:52:11;;;;;;;;;;;9.00;71.70;;;;;;4961198;28;19974;-92
2022/03/25 01:54:39;;;;;;;;;;;8.90;71.80;;;;;;4957597;28;19927;-92
2022/03/25 01:57:08;;;;;;;;;;;8.90;71.70;;;;;;4962550;28;19927;-94
2022/03/25 01:59:35;;;;;;;;;;;8.90;71.70;;;;;;4975662;28;20008;-94
2022/03/25 02:02:04;;;;;;;;;;;8.80;72.00;;;;;;4959754;28;19927;-93
2022/03/25 02:04:31;;;;;;;;;;;8.80;71.90;;;;;;4957764;28;19926;-93
2022/03/25 02:06:58;;;;;;;;;;;8.80;71.60;;;;;;4956542;28;19982;-94
2022/03/25 02:09:27;;;;;;;;;;;8.80;71.70;;;;;;4971143;28;19953;-93
2022/03/25 02:11:56;;;;;;;;;;;8.80;71.50;;;;;;4956399;28;20042;-92
2022/03/25 02:14:23;;;;;;;;;;;8.70;71.40;;;;;;4959352;28;19937;-92
2022/03/25 02:16:51;;;;;;;;;;;8.70;71.00;;;;;;4958955;28;19926;-92
2022/03/25 02:19:20;;;;;;;;;;;8.70;71.30;;;;;;4968454;28;19933;-93
2022/03/25 02:21:52;;;;;;;;;;;8.70;71.30;;;;;;4961933;28;19926;-92
2022/03/25 02:24:27;;;;;;;;;;;8.60;71.20;;;;;;4959860;28;19938;-93
2022/03/25 02:26:55;;;;;;;;;;;8.60;71.10;;;;;;4953210;28;20027;-94
2022/03/25 02:29:23;;;;;;;;;;;8.60;70.90;;;;;;4969594;28;19930;-91
2022/03/25 02:31:50;;;;;;;;;;;8.60;70.80;;;;;;4946907;28;20061;-93
2022/03/25 02:34:17;;;;;;;;;;;8.50;70.40;;;;;;4975439;28;19926;-94
2022/03/25 02:36:46;;;;;;;;;;;8.50;70.60;;;;;;4958381;28;19952;-94
2022/03/25 02:39:15;;;;;;;;;;;8.50;70.50;;;;;;4961221;28;20300;-95
2022/03/25 02:41:43;;;;;;;;;;;8.50;70.90;;;;;;4958502;28;19926;-94
2022/03/25 02:44:11;;;;;;;;;;;8.50;71.20;;;;;;4956616;28;19927;-93
2022/03/25 02:46:42;;;;;;;;;;;8.40;70.90;;;;;;4955725;28;19927;-93
2022/03/25 02:49:09;;;;;;;;;;;8.40;71.20;;;;;;4947237;28;19949;-94
2022/03/25 02:51:37;;;;;;;;;;;8.40;71.30;;;;;;4953440;28;19938;-93
2022/03/25 02:54:04;;;;;;;;;;;8.40;71.20;;;;;;4957179;28;19935;-93
2022/03/25 02:56:35;;;;;;;;;;;8.30;71.20;;;;;;4961558;28;19934;-93
2022/03/25 02:59:03;;;;;;;;;;;8.30;71.10;;;;;;4964385;28;19926;-93
2022/03/25 03:01:30;;;;;;;;;;;8.30;71.40;;;;;;4960872;28;19962;-93
2022/03/25 03:03:57;;;;;;;;;;;8.30;71.30;;;;;;4957100;28;19950;-93
2022/03/25 03:06:24;;;;;;;;;;;8.20;71.30;;;;;;4954888;28;19935;-93
2022/03/25 03:08:51;;;;;;;;;;;8.20;71.50;;;;;;4983431;28;20274;-94
2022/03/25 03:11:18;;;;;;;;;;;8.20;71.50;;;;;;4957123;28;19930;-94
2022/03/25 03:13:47;;;;;;;;;;;8.20;71.30;;;;;;4953739;28;19930;-95
2022/03/25 03:16:14;;;;;;;;;;;8.20;71.40;;;;;;4959064;28;19968;-93
2022/03/25 03:18:43;;;;;;;;;;;8.10;71.20;;;;;;4959453;28;20322;-94
2022/03/25 03:21:10;;;;;;;;;;;8.10;71.40;;;;;;4958822;28;20029;-93
2022/03/25 03:23:36;;;;;;;;;;;8.00;71.40;;;;;;4957594;28;19926;-93
2022/03/25 03:26:04;;;;;;;;;;;8.00;71.40;;;;;;4962901;28;19992;-94
2022/03/25 03:28:31;;;;;;;;;;;8.00;71.50;;;;;;4960869;28;20441;-92
2022/03/25 03:30:59;;;;;;;;;;;8.00;71.30;;;;;;4958568;28;19926;-93
2022/03/25 03:33:26;;;;;;;;;;;7.90;71.30;;;;;;4956355;28;19926;-92
2022/03/25 03:35:53;;;;;;;;;;;7.90;71.30;;;;;;4963631;28;19927;-93
2022/03/25 03:38:20;;;;;;;;;;;7.90;71.10;;;;;;4958837;28;19934;-94
2022/03/25 03:40:47;;;;;;;;;;;7.80;71.00;;;;;;4957109;28;20045;-93
2022/03/25 03:43:14;;;;;;;;;;;7.80;71.20;;;;;;4958468;28;20045;-93
2022/03/25 03:45:41;;;;;;;;;;;7.80;71.10;;;;;;4962888;28;19926;-94
2022/03/25 03:48:11;;;;;;;;;;;7.70;70.70;;;;;;4956208;28;19981;-94
2022/03/25 03:50:38;;;;;;;;;;;7.70;70.80;;;;;;4961808;28;19962;-94
2022/03/25 03:53:05;;;;;;;;;;;7.70;70.40;;;;;;4963470;28;19927;-93
2022/03/25 03:55:33;;;;;;;;;;;7.70;70.40;;;;;;4958354;28;19926;-93
2022/03/25 03:58:05;;;;;;;;;;;7.70;70.70;;;;;;4968584;28;19931;-92
2022/03/25 04:00:32;;;;;;;;;;;7.70;70.80;;;;;;4961076;28;19930;-94
2022/03/25 04:03:00;;;;;;;;;;;7.60;70.40;;;;;;4962056;28;19966;-92
2022/03/25 04:05:28;;;;;;;;;;;7.60;70.50;;;;;;4961959;28;19965;-93
2022/03/25 04:07:55;;;;;;;;;;;7.60;70.80;;;;;;4969264;28;19973;-95
2022/03/25 04:10:22;;;;;;;;;;;7.60;70.60;;;;;;4963241;28;20001;-92
2022/03/25 04:12:49;;;;;;;;;;;7.50;70.50;;;;;;4954614;28;19934;-94
2022/03/25 04:15:16;;;;;;;;;;;7.50;70.60;;;;;;4972014;28;19926;-94
2022/03/25 04:17:44;;;;;;;;;;;7.50;70.60;;;;;;4956864;28;19935;-95
2022/03/25 04:20:15;;;;;;;;;;;7.50;70.60;;;;;;4963428;28;19966;-95
2022/03/25 04:22:44;;;;;;;;;;;7.50;70.80;;;;;;4953543;28;20416;-95
2022/03/25 04:25:11;;;;;;;;;;;7.50;70.70;;;;;;4955341;28;19926;-95
2022/03/25 04:27:48;;;;;;;;;;;7.40;70.80;;;;;;4960474;28;19985;-94
2022/03/25 04:30:18;;;;;;;;;;;7.40;70.80;;;;;;4974834;28;19930;-96
2022/03/25 04:32:45;;;;;;;;;;;7.40;71.00;;;;;;4962712;28;20304;-94
2022/03/25 04:35:13;;;;;;;;;;;7.40;71.00;;;;;;4955732;28;19933;-93
2022/03/25 04:37:41;;;;;;;;;;;7.30;70.90;;;;;;4960029;28;19926;-95
2022/03/25 04:40:26;;;;;;;;;;;7.30;70.80;;;;;;4964516;28;19993;-94
2022/03/25 04:42:54;;;;;;;;;;;7.30;71.10;;;;;;4963588;28;19926;-94
2022/03/25 04:45:24;;;;;;;;;;;7.30;71.10;;;;;;4964921;28;20428;-93
2022/03/25 04:47:53;;;;;;;;;;;7.30;71.00;;;;;;4965049;28;19932;-94
2022/03/25 04:50:21;;;;;;;;;;;7.20;70.90;;;;;;4957803;28;19927;-96
2022/03/25 04:52:50;;;;;;;;;;;7.20;70.90;;;;;;4961438;28;19931;-94
2022/03/25 04:55:22;;;;;;;;;;;7.20;71.00;;;;;;4974769;28;19933;-94
2022/03/25 04:57:51;;;;;;;;;;;7.20;71.70;;;;;;4957699;28;19930;-94
2022/03/25 05:00:23;;;;;;;;;;;7.20;71.10;;;;;;4971123;28;19926;-95
2022/03/25 05:02:55;;;;;;;;;;;7.10;70.80;;;;;;4965856;28;19933;-93
2022/03/25 05:05:25;;;;;;;;;;;7.10;70.80;;;;;;4984622;28;19926;-94
2022/03/25 05:07:54;;;;;;;;;;;7.10;71.00;;;;;;4967134;28;20411;-95
2022/03/25 05:10:27;;;;;;;;;;;7.00;70.80;;;;;;4963113;28;19938;-94
2022/03/25 05:13:00;;;;;;;;;;;7.00;71.00;;;;;;4965951;28;19938;-94
2022/03/25 05:15:34;;;;;;;;;;;7.00;71.00;;;;;;4969603;28;19926;-94
2022/03/25 05:18:06;;;;;;;;;;;7.00;71.20;;;;;;4963725;28;20017;-94
2022/03/25 05:20:36;;;;;;;;;;;7.00;71.20;;;;;;4965664;28;19926;-94
2022/03/25 05:23:07;;;;;;;;;;;7.00;71.20;;;;;;4962081;28;19989;-95
2022/03/25 05:25:36;;;;;;;;;;;6.90;71.10;;;;;;4955434;28;19934;-95
2022/03/25 05:28:03;;;;;;;;;;;6.90;71.10;;;;;;4958418;28;19926;-94
2022/03/25 05:30:31;;;;;;;;;;;6.90;71.20;;;;;;4957685;28;19970;-94
2022/03/25 05:32:58;;;;;;;;;;;6.80;71.00;;;;;;4955316;28;19931;-94
2022/03/25 05:35:26;;;;;;;;;;;6.80;71.30;;;;;;4958617;28;20404;-94
2022/03/25 05:37:54;;;;;;;;;;;6.80;71.20;;;;;;4955969;28;19927;-94
2022/03/25 05:40:22;;;;;;;;;;;6.80;71.20;;;;;;4956106;28;19970;-94
2022/03/25 05:42:50;;;;;;;;;;;6.80;71.00;;;;;;4954437;28;20341;-94
2022/03/25 05:45:18;;;;;;;;;;;6.70;71.00;;;;;;4955806;28;19926;-94
2022/03/25 05:47:45;;;;;;;;;;;6.70;71.00;;;;;;4958465;28;19936;-93
2022/03/25 05:50:13;;;;;;;;;;;6.70;71.00;;;;;;4960696;28;19934;-94
2022/03/25 05:52:40;;;;;;;;;;;6.70;71.00;;;;;;4959049;28;19930;-94
2022/03/25 05:55:08;;;;;;;;;;;6.60;71.10;;;;;;4965224;28;19926;-95
2022/03/25 05:57:35;;;;;;;;;;;6.60;71.10;;;;;;4960328;28;19927;-94
2022/03/25 06:00:04;;;;;;;;;;;6.60;71.10;;;;;;4961172;28;19934;-93
2022/03/25 06:02:39;;;;;;;;;;;6.60;71.10;;;;;;4958923;28;20432;-96
2022/03/25 06:05:07;;;;;;;;;;;6.60;71.10;;;;;;4955142;28;19926;-95
2022/03/25 06:07:37;;;;;;;;;;;6.60;71.10;;;;;;4957439;28;20395;-95
2022/03/25 06:10:05;;;;;;;;;;;6.50;71.10;;;;;;4956490;28;19932;-95
2022/03/25 06:12:32;;;;;;;;;;;6.50;70.80;;;;;;4963779;28;19931;-94
2022/03/25 06:14:59;;;;;;;;;;;6.50;70.90;;;;;;4962815;28;19941;-93
2022/03/25 06:17:27;;;;;;;;;;;6.50;71.00;;;;;;4959494;28;19934;-92
2022/03/25 06:19:54;;;;;;;;;;;6.50;70.90;;;;;;4958450;28;20018;-94
2022/03/25 06:22:24;;;;;;;;;;;6.50;71.00;;;;;;4958408;28;19985;-94
2022/03/25 06:24:52;;;;;;;;;;;6.40;71.10;;;;;;4959330;28;20371;-95
2022/03/25 06:27:19;;;;;;;;;;;6.40;71.20;;;;;;4957874;28;19930;-94
2022/03/25 06:29:46;;;;;;;;;;;6.40;71.30;;;;;;4959001;28;19948;-94
2022/03/25 06:32:13;;;;;;;;;;;6.40;71.20;;;;;;4960673;28;19926;-92
2022/03/25 06:34:41;;;;;;;;;;;6.40;71.30;;;;;;4964797;28;19926;-93
2022/03/25 06:37:08;;;;;;;;;;;6.40;71.30;;;;;;4969482;28;19931;-93
2022/03/25 06:39:35;;;;;;;;;;;6.40;71.40;;;;;;4961021;28;19926;-93
2022/03/25 06:42:02;;;;;;;;;;;6.30;71.40;;;;;;4958220;28;20013;-92
2022/03/25 06:44:29;;;;;;;;;;;6.40;71.60;;;;;;4958189;28;20433;-93
2022/03/25 06:46:56;;;;;;;;;;;6.40;71.70;;;;;;4953210;28;19921;-93
2022/03/25 06:49:24;;;;;;;;;;;6.30;72.20;;;;;;4955913;28;20530;-93
2022/03/25 06:51:53;;;;;;;;;;;6.30;71.80;;;;;;4957654;28;20502;-95
2022/03/25 06:57:02;;;;;;;;;;;6.30;71.70;;;;;;5085392;23;19926;-82
2022/03/25 06:59:29;;;;;;;;;;;6.30;71.80;;;;;;4999559;28;19932;-81
2022/03/25 07:01:59;;;;;;;;;;;6.20;71.90;;;;;;5010792;28;19957;-80
2022/03/25 07:04:26;;;;;;;;;;;6.10;71.90;;;;;;5013892;28;19926;-80
2022/03/25 07:06:56;;;;;;;;;;;6.10;72.20;;;;;;4995634;28;20041;-80
2022/03/25 07:09:23;;;;;;;;;;;6.20;72.50;;;;;;4986699;28;19941;-80
2022/03/25 07:11:51;;;;;;;;;;;6.10;72.50;;;;;;4993087;28;19925;-81
2022/03/25 07:14:20;;;;;;;;;;;6.20;72.40;;;;;;4981959;28;19926;-80
2022/03/25 07:16:47;;;;;;;;;;;6.20;72.50;;;;;;4989761;28;19934;-80
2022/03/25 07:19:14;;;;;;;;;;;6.20;72.50;;;;;;4992483;28;20019;-80
2022/03/25 07:21:41;;;;;;;;;;;6.20;72.50;;;;;;4992016;28;19930;-81
2022/03/25 07:24:09;;;;;;;;;;;6.20;72.50;;;;;;4991857;28;20020;-80
2022/03/25 07:59:54;;;;;;;;;;;6.40;74.10;;;;;;5473447;23;19961;-79
2022/03/25 08:02:21;;;;;;;;;;;6.40;74.20;;;;;;4959966;28;20681;-80
2022/03/25 08:07:44;;;;;;;;;;;6.40;74.30;;;;;;5162086;23;19949;-79
2022/03/25 08:10:13;;;;;;;;;;;6.40;74.40;;;;;;4991232;28;19941;-81
2022/03/25 08:12:41;;;;;;;;;;;6.50;74.50;;;;;;4996598;28;19926;-79
2022/03/25 08:15:10;;;;;;;;;;;6.50;74.40;;;;;;4982410;28;19933;-79
2022/03/25 08:17:50;;;;;;;;;;;6.50;74.50;;;;;;4992201;28;20013;-80
2022/03/25 08:20:22;;;;;;;;;;;6.50;74.70;;;;;;4964197;28;19926;-79
2022/03/25 08:22:49;;;;;;;;;;;6.50;74.50;;;;;;4980493;28;19925;-80
2022/03/25 08:28:01;;;;;;;;;;;6.50;74.50;;;;;;4975867;28;19928;-80
2022/03/25 08:30:33;;;;;;;;;;;6.60;74.60;;;;;;4996204;28;19926;-81
2022/03/25 08:33:01;;;;;;;;;;;6.60;74.80;;;;;;4984759;28;19929;-81
2022/03/25 08:48:33;;;;;;;;;;;6.70;75.30;;;;;;5244970;23;19936;-80
2022/03/25 08:51:01;;;;;;;;;;;6.80;75.50;;;;;;5010159;28;19933;-80
2022/03/25 08:53:28;;;;;;;;;;;6.80;75.40;;;;;;5007972;28;19929;-80
2022/03/25 08:55:54;;;;;;;;;;;6.80;75.50;;;;;;4977618;28;19930;-80
2022/03/25 08:58:22;;;;;;;;;;;6.90;75.70;;;;;;4986043;28;22310;-80
2022/03/25 09:00:49;;;;;;;;;;;6.90;75.80;;;;;;4985025;28;19933;-80
2022/03/25 09:03:16;;;;;;;;;;;6.90;75.90;;;;;;4987533;28;19925;-80
2022/03/25 09:05:47;;;;;;;;;;;6.90;76.10;;;;;;4988266;28;19940;-80
2022/03/25 09:08:15;;;;;;;;;;;6.90;76.10;;;;;;4986411;28;19932;-81
2022/03/25 09:10:42;;;;;;;;;;;7.00;76.10;;;;;;4986360;28;19940;-80
2022/03/25 09:13:08;;;;;;;;;;;7.00;76.40;;;;;;4969104;28;19940;-80
2022/03/25 09:15:35;;;;;;;;;;;7.10;76.60;;;;;;4986133;28;20479;-80
2022/03/25 09:18:02;;;;;;;;;;;7.10;76.50;;;;;;4971617;28;20021;-80
2022/03/25 09:20:30;;;;;;;;;;;7.10;76.60;;;;;;4973111;28;19956;-80
2022/03/25 09:22:58;;;;;;;;;;;7.10;76.60;;;;;;4971554;28;19933;-80
2022/03/25 09:25:25;;;;;;;;;;;7.20;76.90;;;;;;4982491;28;19926;-81
2022/03/25 09:27:52;;;;;;;;;;;7.20;76.80;;;;;;4989121;28;20364;-80
2022/03/25 09:30:19;;;;;;;;;;;7.20;76.80;;;;;;4975431;28;19936;-80
2022/03/25 09:32:46;;;;;;;;;;;7.30;77.00;;;;;;4988203;28;20012;-80
2022/03/25 09:35:14;;;;;;;;;;;7.30;77.10;;;;;;4983662;28;19934;-80
2022/03/25 09:37:42;;;;;;;;;;;7.30;77.30;;;;;;4969070;28;19926;-80
2022/03/25 09:40:12;;;;;;;;;;;7.30;77.20;;;;;;4986441;28;19949;-80
2022/03/25 09:42:39;;;;;;;;;;;7.40;77.40;;;;;;4992074;28;20102;-80
2022/03/25 09:45:07;;;;;;;;;;;7.40;77.50;;;;;;4981538;28;19980;-80
2022/03/25 09:47:35;;;;;;;;;;;7.50;77.50;;;;;;4966363;28;19926;-80
2022/03/25 09:50:02;;;;;;;;;;;7.50;77.50;;;;;;4981602;28;19957;-79
2022/03/25 09:52:31;;;;;;;;;;;8.00;77.70;;;;;;4983837;28;19925;-80
2022/03/25 09:54:59;;;;;;;;;;;8.60;76.00;;;;;;4986855;28;19926;-80
2022/03/25 09:57:27;;;;;;;;;;;8.90;74.00;;;;;;4974545;28;19929;-81
2022/03/25 09:59:54;;;;;;;;;;;9.00;73.80;;;;;;4974146;28;19925;-80
2022/03/25 10:02:21;;;;;;;;;;;8.70;74.80;;;;;;4989228;28;20315;-80
2022/03/25 10:04:49;;;;;;;;;;;8.80;73.90;;;;;;4980545;28;19930;-80
2022/03/25 10:07:17;;;;;;;;;;;8.60;75.00;;;;;;4975790;28;19926;-80
2022/03/25 10:09:44;;;;;;;;;;;8.40;75.30;;;;;;4984023;28;19945;-80
2022/03/25 10:12:19;;;;;;;;;;;8.40;75.20;;;;;;4977300;28;20347;-80
2022/03/25 10:14:49;;;;;;;;;;;8.30;76.00;;;;;;4989689;28;19981;-80
2022/03/25 10:17:16;;;;;;;;;;;8.30;76.60;;;;;;4990133;28;19926;-80
2022/03/25 10:19:47;;;;;;;;;;;8.30;76.20;;;;;;4995537;28;20009;-80
2022/03/25 10:22:16;;;;;;;;;;;8.30;76.40;;;;;;4990611;28;19933;-80
2022/03/25 10:24:43;;;;;;;;;;;8.30;76.20;;;;;;4992693;28;19925;-80
2022/03/25 10:27:11;;;;;;;;;;;8.30;75.90;;;;;;4988614;28;19926;-81
2022/03/25 10:29:38;;;;;;;;;;;8.30;76.20;;;;;;4988014;28;19968;-80
2022/03/25 10:32:08;;;;;;;;;;;8.40;77.00;;;;;;4992198;28;19953;-80
2022/03/25 10:34:35;;;;;;;;;;;8.40;76.10;;;;;;4974731;28;19926;-81
2022/03/25 10:37:04;;;;;;;;;;;8.50;76.20;;;;;;4994859;28;19933;-81
2022/03/25 10:39:31;;;;;;;;;;;8.50;76.00;;;;;;4976014;28;19948;-81
2022/03/25 10:41:58;;;;;;;;;;;8.50;75.10;;;;;;4977313;28;20017;-81
2022/03/25 10:44:36;;;;;;;;;;;8.60;75.30;;;;;;4976243;28;20332;-82
2022/03/25 10:47:20;;;;;;;;;;;8.60;75.60;;;;;;4989409;28;19934;-81
2022/03/25 10:49:48;;;;;;;;;;;8.60;75.70;;;;;;4975705;28;19941;-81
2022/03/25 10:52:20;;;;;;;;;;;8.60;76.00;;;;;;4992231;28;19926;-81
2022/03/25 10:55:14;;;;;;;;;;;8.70;75.30;;;;;;4976454;28;19937;-81
2022/03/25 10:57:47;;;;;;;;;;;8.70;75.10;;;;;;4989832;28;20391;-82
2022/03/25 11:00:16;;;;;;;;;;;8.80;75.10;;;;;;4977908;28;20474;-81
2022/03/25 11:02:45;;;;;;;;;;;8.80;75.00;;;;;;4977036;28;19926;-82
2022/03/25 12:56:14;;;;;;;;;;;10.80;74.20;;;;;;5468372;23;19932;-80
2022/03/25 12:58:42;;;;;;;;;;;10.90;73.70;;;;;;4996449;28;20531;-79
2022/03/25 13:01:14;;;;;;;;;;;11.00;73.30;;;;;;5008054;28;19996;-80
2022/03/25 13:03:43;;;;;;;;;;;11.30;72.70;;;;;;5005399;28;20391;-80
2022/03/25 13:06:10;;;;;;;;;;;11.60;73.10;;;;;;4996104;28;20052;-79
2022/03/25 13:08:37;;;;;;;;;;;11.60;73.50;;;;;;4988443;28;20016;-80
2022/03/25 13:11:04;;;;;;;;;;;11.50;73.10;;;;;;4988177;28;20413;-80
2022/03/25 13:13:37;;;;;;;;;;;11.80;71.80;;;;;;4987348;28;19933;-80
2022/03/25 13:16:08;;;;;;;;;;;11.80;72.00;;;;;;4989590;28;20047;-80
2022/03/25 13:18:37;;;;;;;;;;;12.00;72.20;;;;;;4999428;28;20269;-80
2022/03/25 13:21:06;;;;;;;;;;;12.10;70.80;;;;;;4999552;28;19941;-80
2022/03/25 13:23:33;;;;;;;;;;;12.30;71.50;;;;;;4986917;28;19948;-80
2022/03/25 13:26:17;;;;;;;;;;;12.20;72.70;;;;;;4997411;28;20351;-80
2022/03/25 13:28:55;;;;;;;;;;;12.40;67.70;;;;;;4972124;28;20396;-78
2022/03/25 13:31:22;;;;;;;;;;;12.90;62.20;;;;;;4984137;28;20274;-78
2022/03/25 13:33:51;;;;;;;;;;;13.40;62.00;;;;;;4988187;28;19925;-79
2022/03/25 13:36:24;;;;;;;;;;;13.70;63.60;;;;;;4991494;28;20388;-77
2022/03/25 13:38:52;;;;;;;;;;;13.70;63.70;;;;;;4973726;28;20407;-79
2022/03/25 13:41:20;;;;;;;;;;;13.80;64.70;;;;;;4987762;28;19932;-79
2022/03/25 13:43:48;;;;;;;;;;;14.10;64.20;;;;;;4987746;28;19926;-79
2022/03/25 13:46:21;;;;;;;;;;;14.40;60.50;;;;;;4985057;28;19934;-79
2022/03/25 13:48:50;;;;;;;;;;;14.70;61.60;;;;;;4986240;28;20411;-79
2022/03/25 13:51:18;;;;;;;;;;;14.60;61.10;;;;;;4990414;28;19965;-79
2022/03/25 13:53:50;;;;;;;;;;;14.70;61.30;;;;;;4991085;28;19933;-79
2022/03/25 13:56:19;;;;;;;;;;;14.70;62.10;;;;;;4985815;28;19933;-79
2022/03/25 13:58:48;;;;;;;;;;;14.70;61.50;;;;;;4973813;28;20574;-79
2022/03/25 14:01:16;;;;;;;;;;;14.90;61.30;;;;;;4987934;28;20020;-79
2022/03/25 14:03:45;;;;;;;;;;;14.70;57.70;;;;;;4986719;28;19933;-78
2022/03/25 14:06:15;;;;;;;;;;;14.70;59.50;;;;;;4988175;28;19933;-79
2022/03/25 14:08:43;;;;;;;;;;;14.80;60.70;;;;;;4990993;28;19937;-78
2022/03/25 14:11:12;;;;;;;;;;;15.10;58.40;;;;;;4982156;28;19929;-79
2022/03/25 14:13:58;;;;;;;;;;;15.30;60.20;;;;;;5000215;28;19933;-80
2022/03/25 14:16:26;;;;;;;;;;;15.20;60.60;;;;;;4989989;28;19944;-79
2022/03/25 14:18:58;;;;;;;;;;;15.30;60.70;;;;;;4964161;28;23630;-77
2022/03/25 14:21:29;;;;;;;;;;;15.10;57.90;;;;;;4983225;28;20304;-79
2022/03/25 14:26:38;;;;;;;;;;;14.70;62.40;;;;;;4980390;28;20957;-78
2022/03/25 14:29:06;;;;;;;;;;;14.50;64.10;;;;;;4980028;28;19964;-77
2022/03/25 14:31:33;;;;;;;;;;;14.40;66.00;;;;;;4964756;28;19945;-78
2022/03/25 14:34:01;;;;;;;;;;;14.30;66.40;;;;;;4985598;28;19934;-78
2022/03/25 14:36:28;;;;;;;;;;;14.20;67.10;;;;;;4987268;28;19933;-79
2022/03/25 14:38:55;;;;;;;;;;;14.10;67.50;;;;;;4963942;28;19972;-78
2022/03/25 14:41:27;;;;;;;;;;;14.10;68.00;;;;;;4983339;28;20396;-77
2022/03/25 14:43:55;;;;;;;;;;;14.00;68.30;;;;;;4978919;28;19926;-78
2022/03/25 14:46:21;;;;;;;;;;;14.00;68.70;;;;;;4965088;28;20353;-78
2022/03/25 14:48:49;;;;;;;;;;;14.00;68.90;;;;;;4976674;28;20383;-78
2022/03/25 14:51:17;;;;;;;;;;;14.00;69.20;;;;;;4979448;28;19953;-78
2022/03/25 14:53:44;;;;;;;;;;;14.00;69.40;;;;;;4988954;28;19930;-78
2022/03/25 14:56:11;;;;;;;;;;;14.00;69.60;;;;;;4981932;28;19937;-78
2022/03/25 14:58:38;;;;;;;;;;;14.10;69.60;;;;;;4990772;28;19933;-78
2022/03/25 15:06:02;;;;;;;;;;;14.10;70.40;;;;;;4969986;28;19926;-78
2022/03/25 15:08:31;;;;;;;;;;;14.10;70.50;;;;;;4966467;28;20343;-79
2022/03/25 15:10:58;;;;;;;;;;;14.10;70.60;;;;;;4943149;28;20427;-79
2022/03/25 15:13:25;;;;;;;;;;;14.10;70.10;;;;;;4942315;28;19926;-79
2022/03/25 15:15:52;;;;;;;;;;;14.20;71.10;;;;;;4968621;28;19933;-79
2022/03/25 15:18:19;;;;;;;;;;;14.20;71.20;;;;;;4971131;28;19926;-78
2022/03/25 15:20:46;;;;;;;;;;;14.20;71.50;;;;;;4964985;28;19936;-79
2022/03/25 15:23:13;;;;;;;;;;;14.20;71.20;;;;;;4949741;28;19961;-79
2022/03/25 15:25:42;;;;;;;;;;;14.20;71.60;;;;;;4966525;28;20392;-79
2022/03/25 15:28:09;;;;;;;;;;;14.20;71.30;;;;;;4968338;28;20389;-79
2022/03/25 15:36:05;;;;;;;;;;;14.20;70.50;;;;;;4965612;28;19981;-80
2022/03/25 15:38:32;;;;;;;;;;;14.20;70.50;;;;;;4950421;28;19930;-79
2022/03/25 15:41:00;;;;;;;;;;;14.30;70.80;;;;;;4948425;28;19930;-80
2022/03/25 15:43:27;;;;;;;;;;;14.30;70.60;;;;;;4970314;28;20040;-79
2022/03/25 15:45:54;;;;;;;;;;;14.30;70.90;;;;;;4950860;28;19945;-79
2022/03/25 15:48:21;;;;;;;;;;;14.40;71.30;;;;;;4966516;28;19926;-79
2022/03/25 15:50:48;;;;;;;;;;;14.30;71.30;;;;;;4947316;28;19945;-79
2022/03/25 15:53:15;;;;;;;;;;;14.40;71.40;;;;;;4964899;28;20381;-78
2022/03/25 15:55:42;;;;;;;;;;;14.40;62.30;;;;;;4964086;28;20300;-78
2022/03/25 15:58:10;;;;;;;;;;;14.50;60.20;;;;;;4969433;28;20404;-77
2022/03/25 16:00:39;;;;;;;;;;;14.50;59.60;;;;;;4967284;28;19941;-77
2022/03/25 16:03:08;;;;;;;;;;;14.50;57.20;;;;;;4968982;28;19937;-77
2022/03/25 16:05:35;;;;;;;;;;;14.50;58.50;;;;;;4967315;28;19933;-79
2022/03/25 16:08:02;;;;;;;;;;;14.50;57.30;;;;;;4947522;28;20562;-77
2022/03/25 16:10:30;;;;;;;;;;;14.60;55.60;;;;;;4965359;28;19926;-77
2022/03/25 16:12:57;;;;;;;;;;;14.60;58.20;;;;;;4963318;28;19956;-78
2022/03/25 16:15:26;;;;;;;;;;;14.60;56.90;;;;;;4948373;28;19977;-78
2022/03/25 16:17:53;;;;;;;;;;;14.60;58.80;;;;;;4967919;28;19926;-78
2022/03/25 16:20:21;;;;;;;;;;;14.50;57.10;;;;;;4952448;28;20369;-78
2022/03/25 16:22:48;;;;;;;;;;;14.60;57.70;;;;;;4951626;28;19985;-78
2022/03/25 16:25:16;;;;;;;;;;;14.60;55.60;;;;;;4964504;28;19934;-78
2022/03/25 16:27:43;;;;;;;;;;;14.60;58.10;;;;;;4969351;28;19934;-78
2022/03/25 16:30:11;;;;;;;;;;;14.60;57.30;;;;;;4950721;28;19925;-77
2022/03/25 16:32:39;;;;;;;;;;;14.60;60.70;;;;;;4947118;28;20360;-77
2022/03/25 16:35:07;;;;;;;;;;;14.60;59.40;;;;;;4965390;28;19945;-78
2022/03/25 16:37:34;;;;;;;;;;;14.60;56.40;;;;;;4961797;28;19934;-78
2022/03/25 16:40:05;;;;;;;;;;;14.60;59.00;;;;;;4967604;28;20318;-77
2022/03/25 16:42:31;;;;;;;;;;;14.60;57.30;;;;;;4959001;28;20016;-78
2022/03/25 16:44:58;;;;;;;;;;;14.60;59.10;;;;;;4961182;28;20376;-77
2022/03/25 16:47:25;;;;;;;;;;;14.60;58.40;;;;;;4944924;28;21517;-78
2022/03/25 16:49:54;;;;;;;;;;;14.60;59.40;;;;;;4963979;28;20020;-78
2022/03/25 16:52:21;;;;;;;;;;;14.60;58.60;;;;;;4952791;28;20032;-77
2022/03/25 16:54:48;;;;;;;;;;;14.60;58.40;;;;;;4964800;28;19980;-79
2022/03/25 16:57:15;;;;;;;;;;;14.60;56.50;;;;;;4952903;28;19934;-78
2022/03/25 16:59:42;;;;;;;;;;;14.60;58.40;;;;;;4967727;28;19933;-78
2022/03/25 17:02:09;;;;;;;;;;;14.60;58.00;;;;;;4968217;28;20020;-78
2022/03/25 17:04:36;;;;;;;;;;;14.60;58.20;;;;;;4970977;28;19990;-79
2022/03/25 17:07:05;;;;;;;;;;;14.70;55.80;;;;;;4947732;28;20053;-79
2022/03/25 17:09:32;;;;;;;;;;;14.70;55.50;;;;;;4952662;28;20024;-79
2022/03/25 17:11:59;;;;;;;;;;;14.70;54.90;;;;;;4967699;28;19937;-78
2022/03/25 17:14:26;;;;;;;;;;;14.70;55.10;;;;;;4969944;28;19945;-79
2022/03/25 17:16:54;;;;;;;;;;;14.60;53.60;;;;;;4951604;28;19929;-79
2022/03/25 17:19:21;;;;;;;;;;;14.60;53.80;;;;;;4951010;28;19930;-79
2022/03/25 17:21:48;;;;;;;;;;;14.50;53.80;;;;;;4970635;28;19933;-79
2022/03/25 17:24:17;;;;;;;;;;;14.50;54.30;;;;;;4964961;28;19926;-80
2022/03/25 17:26:44;;;;;;;;;;;14.50;53.70;;;;;;4965041;28;19948;-79
2022/03/25 17:29:11;;;;;;;;;;;14.40;54.10;;;;;;4949242;28;20416;-79
2022/03/25 17:31:38;;;;;;;;;;;14.40;53.80;;;;;;4969297;28;19965;-79